sensor_id;sensor_type;location;lat;lon;timestamp;temperature;humidity
29353;DHT22;16344;50.364;8.944;2023-04-24T00:01:11;12.50;1.00
29353;DHT22;16344;50.364;8.944;2023-04-24T00:03:38;12.50;1.00
29353;DHT22;16344;50.364;8.944;2023-04-24T00:06:04;12.50;1.00
29353;DHT22;16344;50.364;8.944;2023-04-24T00:08:32;12.60;1.00
29353;DHT22;16344;50.364;8.944;2023-04-24T00:10:57;12.60;1.00
29353;DHT22;16344;50.364;8.944;2023-04-24T00:13:23;12.50;1.00
29353;DHT22;16344;50.364;8.944;2023-04-24T00:15:48;12.50;1.00
29353;DHT22;16344;50.364;8.944;2023-04-24T00:18:14;12.60;1.00
29353;DHT22;16344;50.364;8.944;2023-04-24T00:20:39;12.60;1.00
29353;DHT22;16344;50.364;8.944;2023-04-24T00:23:05;12.50;1.00
29353;DHT22;16344;50.364;8.944;2023-04-24T00:25:30;12.60;1.00
29353;DHT22;16344;50.364;8.944;2023-04-24T00:27:56;12.60;1.00
29353;DHT22;16344;50.364;8.944;2023-04-24T00:30:21;12.60;1.00
29353;DHT22;16344;50.364;8.944;2023-04-24T00:32:47;12.60;1.00
29353;DHT22;16344;50.364;8.944;2023-04-24T00:35:13;12.60;1.00
29353;DHT22;16344;50.364;8.944;2023-04-24T00:37:39;12.60;1.00
29353;DHT22;16344;50.364;8.944;2023-04-24T00:40:06;12.60;1.00
29353;DHT22;16344;50.364;8.944;2023-04-24T00:42:32;12.60;1.00
29353;DHT22;16344;50.364;8.944;2023-04-24T00:44:58;12.50;1.00
29353;DHT22;16344;50.364;8.944;2023-04-24T00:47:25;12.50;1.00
29353;DHT22;16344;50.364;8.944;2023-04-24T00:49:51;12.50;1.00
29353;DHT22;16344;50.364;8.944;2023-04-24T00:52:16;12.50;1.00
29353;DHT22;16344;50.364;8.944;2023-04-24T00:54:43;12.60;1.00
29353;DHT22;16344;50.364;8.944;2023-04-24T00:57:10;12.60;1.00
29353;DHT22;16344;50.364;8.944;2023-04-24T00:59:36;12.50;1.00
29353;DHT22;16344;50.364;8.944;2023-04-24T01:02:03;12.50;1.00
29353;DHT22;16344;50.364;8.944;2023-04-24T01:04:28;12.50;1.00
29353;DHT22;16344;50.364;8.944;2023-04-24T01:06:55;12.50;1.00
29353;DHT22;16344;50.364;8.944;2023-04-24T01:09:23;12.50;1.00
29353;DHT22;16344;50.364;8.944;2023-04-24T01:11:49;12.60;1.00
29353;DHT22;16344;50.364;8.944;2023-04-24T01:14:15;12.60;1.00
29353;DHT22;16344;50.364;8.944;2023-04-24T01:16:40;12.60;1.00
29353;DHT22;16344;50.364;8.944;2023-04-24T01:19:07;12.60;1.00
29353;DHT22;16344;50.364;8.944;2023-04-24T01:21:36;12.60;1.00
29353;DHT22;16344;50.364;8.944;2023-04-24T01:24:03;12.60;1.00
29353;DHT22;16344;50.364;8.944;2023-04-24T01:26:29;12.70;1.00
29353;DHT22;16344;50.364;8.944;2023-04-24T01:28:54;12.60;1.00
29353;DHT22;16344;50.364;8.944;2023-04-24T01:31:20;12.50;1.00
29353;DHT22;16344;50.364;8.944;2023-04-24T01:33:47;12.50;1.00
29353;DHT22;16344;50.364;8.944;2023-04-24T01:36:13;12.60;1.00
29353;DHT22;16344;50.364;8.944;2023-04-24T01:38:39;12.50;1.00
29353;DHT22;16344;50.364;8.944;2023-04-24T01:41:04;12.50;1.00
29353;DHT22;16344;50.364;8.944;2023-04-24T01:43:31;12.40;1.00
29353;DHT22;16344;50.364;8.944;2023-04-24T01:45:57;12.40;1.00
29353;DHT22;16344;50.364;8.944;2023-04-24T01:48:22;12.40;1.00
29353;DHT22;16344;50.364;8.944;2023-04-24T01:50:48;12.30;1.00
29353;DHT22;16344;50.364;8.944;2023-04-24T01:53:14;12.30;1.00
29353;DHT22;16344;50.364;8.944;2023-04-24T01:55:40;12.30;1.00
29353;DHT22;16344;50.364;8.944;2023-04-24T01:58:06;12.20;1.00
29353;DHT22;16344;50.364;8.944;2023-04-24T02:00:32;12.20;1.00
29353;DHT22;16344;50.364;8.944;2023-04-24T02:02:57;12.20;1.00
29353;DHT22;16344;50.364;8.944;2023-04-24T02:05:23;12.20;1.00
29353;DHT22;16344;50.364;8.944;2023-04-24T02:07:48;12.20;1.00
29353;DHT22;16344;50.364;8.944;2023-04-24T02:10:14;12.20;1.00
29353;DHT22;16344;50.364;8.944;2023-04-24T02:12:39;12.20;1.00
29353;DHT22;16344;50.364;8.944;2023-04-24T02:15:05;12.20;1.00
29353;DHT22;16344;50.364;8.944;2023-04-24T02:17:31;12.20;1.00
29353;DHT22;16344;50.364;8.944;2023-04-24T02:19:57;12.20;1.00
29353;DHT22;16344;50.364;8.944;2023-04-24T02:22:22;12.20;1.00
29353;DHT22;16344;50.364;8.944;2023-04-24T02:24:48;12.20;1.00
29353;DHT22;16344;50.364;8.944;2023-04-24T02:27:13;12.30;1.00
29353;DHT22;16344;50.364;8.944;2023-04-24T02:29:40;12.30;1.00
29353;DHT22;16344;50.364;8.944;2023-04-24T02:32:05;12.20;1.00
29353;DHT22;16344;50.364;8.944;2023-04-24T02:34:31;12.20;1.00
29353;DHT22;16344;50.364;8.944;2023-04-24T02:36:56;12.20;1.00
29353;DHT22;16344;50.364;8.944;2023-04-24T02:39:22;12.20;1.00
29353;DHT22;16344;50.364;8.944;2023-04-24T02:41:47;12.10;1.00
29353;DHT22;16344;50.364;8.944;2023-04-24T02:44:13;12.20;1.00
29353;DHT22;16344;50.364;8.944;2023-04-24T02:46:38;12.30;1.00
29353;DHT22;16344;50.364;8.944;2023-04-24T02:49:06;12.20;1.00
29353;DHT22;16344;50.364;8.944;2023-04-24T02:51:32;12.30;1.00
29353;DHT22;16344;50.364;8.944;2023-04-24T02:53:57;12.20;1.00
29353;DHT22;16344;50.364;8.944;2023-04-24T02:56:23;12.30;1.00
29353;DHT22;16344;50.364;8.944;2023-04-24T02:58:48;12.30;1.00
29353;DHT22;16344;50.364;8.944;2023-04-24T03:01:14;12.30;1.00
29353;DHT22;16344;50.364;8.944;2023-04-24T03:03:40;12.30;1.00
29353;DHT22;16344;50.364;8.944;2023-04-24T03:06:06;12.30;1.00
29353;DHT22;16344;50.364;8.944;2023-04-24T03:08:33;12.30;1.00
29353;DHT22;16344;50.364;8.944;2023-04-24T03:10:58;12.10;1.00
29353;DHT22;16344;50.364;8.944;2023-04-24T03:13:24;12.20;1.00
29353;DHT22;16344;50.364;8.944;2023-04-24T03:15:49;12.20;1.00
29353;DHT22;16344;50.364;8.944;2023-04-24T03:18:15;12.20;1.00
29353;DHT22;16344;50.364;8.944;2023-04-24T03:20:40;12.20;1.00
29353;DHT22;16344;50.364;8.944;2023-04-24T03:23:06;12.20;1.00
29353;DHT22;16344;50.364;8.944;2023-04-24T03:25:31;12.20;1.00
29353;DHT22;16344;50.364;8.944;2023-04-24T03:27:57;12.20;1.00
29353;DHT22;16344;50.364;8.944;2023-04-24T03:30:22;12.20;1.00
29353;DHT22;16344;50.364;8.944;2023-04-24T03:32:48;12.20;1.00
29353;DHT22;16344;50.364;8.944;2023-04-24T03:35:13;12.10;1.00
29353;DHT22;16344;50.364;8.944;2023-04-24T03:37:39;12.00;1.00
29353;DHT22;16344;50.364;8.944;2023-04-24T03:40:05;12.00;1.00
29353;DHT22;16344;50.364;8.944;2023-04-24T03:42:32;12.10;1.00
29353;DHT22;16344;50.364;8.944;2023-04-24T03:44:57;12.00;1.00
29353;DHT22;16344;50.364;8.944;2023-04-24T03:47:23;12.00;1.00
29353;DHT22;16344;50.364;8.944;2023-04-24T03:49:48;12.00;1.00
29353;DHT22;16344;50.364;8.944;2023-04-24T03:52:14;12.00;1.00
29353;DHT22;16344;50.364;8.944;2023-04-24T03:54:39;11.90;1.00
29353;DHT22;16344;50.364;8.944;2023-04-24T03:57:05;12.00;1.00
29353;DHT22;16344;50.364;8.944;2023-04-24T03:59:31;11.90;1.00
29353;DHT22;16344;50.364;8.944;2023-04-24T04:01:56;11.90;1.00
29353;DHT22;16344;50.364;8.944;2023-04-24T04:04:22;12.00;1.00
29353;DHT22;16344;50.364;8.944;2023-04-24T04:06:47;11.90;1.00
29353;DHT22;16344;50.364;8.944;2023-04-24T04:09:13;11.80;1.00
29353;DHT22;16344;50.364;8.944;2023-04-24T04:11:39;11.80;1.00
29353;DHT22;16344;50.364;8.944;2023-04-24T04:14:04;11.80;1.00
29353;DHT22;16344;50.364;8.944;2023-04-24T04:16:30;11.80;1.00
29353;DHT22;16344;50.364;8.944;2023-04-24T04:18:56;11.80;1.00
29353;DHT22;16344;50.364;8.944;2023-04-24T04:21:21;11.80;1.00
29353;DHT22;16344;50.364;8.944;2023-04-24T04:23:47;11.80;1.00
29353;DHT22;16344;50.364;8.944;2023-04-24T04:26:13;11.80;1.00
29353;DHT22;16344;50.364;8.944;2023-04-24T04:28:39;11.80;1.00
29353;DHT22;16344;50.364;8.944;2023-04-24T04:31:05;11.90;1.00
29353;DHT22;16344;50.364;8.944;2023-04-24T04:33:30;11.90;1.00
29353;DHT22;16344;50.364;8.944;2023-04-24T04:35:56;11.80;1.00
29353;DHT22;16344;50.364;8.944;2023-04-24T04:38:23;11.80;1.00
29353;DHT22;16344;50.364;8.944;2023-04-24T04:40:50;11.70;1.00
29353;DHT22;16344;50.364;8.944;2023-04-24T04:43:15;11.70;1.00
29353;DHT22;16344;50.364;8.944;2023-04-24T04:45:41;11.70;1.00
29353;DHT22;16344;50.364;8.944;2023-04-24T04:48:08;11.70;1.00
29353;DHT22;16344;50.364;8.944;2023-04-24T04:50:35;11.70;1.00
29353;DHT22;16344;50.364;8.944;2023-04-24T04:53:00;11.70;1.00
29353;DHT22;16344;50.364;8.944;2023-04-24T04:55:26;11.60;1.00
29353;DHT22;16344;50.364;8.944;2023-04-24T04:57:52;11.60;1.00
29353;DHT22;16344;50.364;8.944;2023-04-24T05:00:18;11.50;1.00
29353;DHT22;16344;50.364;8.944;2023-04-24T05:02:43;11.40;1.00
29353;DHT22;16344;50.364;8.944;2023-04-24T05:05:09;11.40;1.00
29353;DHT22;16344;50.364;8.944;2023-04-24T05:07:35;11.40;1.00
29353;DHT22;16344;50.364;8.944;2023-04-24T05:10:00;11.40;1.00
29353;DHT22;16344;50.364;8.944;2023-04-24T05:12:26;11.50;1.00
29353;DHT22;16344;50.364;8.944;2023-04-24T05:14:52;11.90;1.00
29353;DHT22;16344;50.364;8.944;2023-04-24T05:17:17;12.80;99.90
29353;DHT22;16344;50.364;8.944;2023-04-24T05:19:43;13.50;99.90
29353;DHT22;16344;50.364;8.944;2023-04-24T05:22:09;14.30;93.00
29353;DHT22;16344;50.364;8.944;2023-04-24T05:24:36;15.20;1.00
29353;DHT22;16344;50.364;8.944;2023-04-24T05:27:03;15.90;1.00
29353;DHT22;16344;50.364;8.944;2023-04-24T05:29:30;16.90;1.00
29353;DHT22;16344;50.364;8.944;2023-04-24T05:32:00;18.00;1.00
29353;DHT22;16344;50.364;8.944;2023-04-24T05:34:26;19.00;1.00
29353;DHT22;16344;50.364;8.944;2023-04-24T05:36:52;19.60;1.00
29353;DHT22;16344;50.364;8.944;2023-04-24T05:39:18;20.00;1.00
29353;DHT22;16344;50.364;8.944;2023-04-24T05:41:44;20.70;1.00
29353;DHT22;16344;50.364;8.944;2023-04-24T05:44:10;21.10;1.00
29353;DHT22;16344;50.364;8.944;2023-04-24T05:46:35;21.40;1.00
29353;DHT22;16344;50.364;8.944;2023-04-24T05:49:01;21.60;1.00
29353;DHT22;16344;50.364;8.944;2023-04-24T05:51:27;22.10;1.00
29353;DHT22;16344;50.364;8.944;2023-04-24T05:53:53;22.60;1.00
29353;DHT22;16344;50.364;8.944;2023-04-24T05:56:19;23.10;1.00
29353;DHT22;16344;50.364;8.944;2023-04-24T05:58:46;23.60;99.90
29353;DHT22;16344;50.364;8.944;2023-04-24T06:01:12;24.20;99.90
29353;DHT22;16344;50.364;8.944;2023-04-24T06:03:38;24.20;99.90
29353;DHT22;16344;50.364;8.944;2023-04-24T06:06:05;22.60;99.90
29353;DHT22;16344;50.364;8.944;2023-04-24T06:08:31;21.00;99.90
29353;DHT22;16344;50.364;8.944;2023-04-24T06:10:57;20.80;99.90
29353;DHT22;16344;50.364;8.944;2023-04-24T06:13:22;21.60;99.90
29353;DHT22;16344;50.364;8.944;2023-04-24T06:15:47;22.20;99.90
29353;DHT22;16344;50.364;8.944;2023-04-24T06:18:13;22.60;99.90
29353;DHT22;16344;50.364;8.944;2023-04-24T06:20:39;23.10;99.90
29353;DHT22;16344;50.364;8.944;2023-04-24T06:23:05;22.90;99.90
29353;DHT22;16344;50.364;8.944;2023-04-24T06:25:30;21.90;99.90
29353;DHT22;16344;50.364;8.944;2023-04-24T06:27:57;21.50;99.90
29353;DHT22;16344;50.364;8.944;2023-04-24T06:30:22;21.40;99.90
29353;DHT22;16344;50.364;8.944;2023-04-24T06:32:48;20.90;99.90
29353;DHT22;16344;50.364;8.944;2023-04-24T06:35:13;20.80;99.90
29353;DHT22;16344;50.364;8.944;2023-04-24T06:37:40;20.90;99.90
29353;DHT22;16344;50.364;8.944;2023-04-24T06:40:07;20.20;99.90
29353;DHT22;16344;50.364;8.944;2023-04-24T06:42:32;19.50;1.00
29353;DHT22;16344;50.364;8.944;2023-04-24T06:44:58;19.10;1.00
29353;DHT22;16344;50.364;8.944;2023-04-24T06:47:23;18.40;1.00
29353;DHT22;16344;50.364;8.944;2023-04-24T06:49:49;17.90;1.00
29353;DHT22;16344;50.364;8.944;2023-04-24T06:52:16;17.70;1.00
29353;DHT22;16344;50.364;8.944;2023-04-24T06:54:42;17.80;1.00
29353;DHT22;16344;50.364;8.944;2023-04-24T06:57:08;17.90;1.00
29353;DHT22;16344;50.364;8.944;2023-04-24T06:59:34;17.90;1.00
29353;DHT22;16344;50.364;8.944;2023-04-24T07:02:00;17.90;1.00
29353;DHT22;16344;50.364;8.944;2023-04-24T07:04:25;17.90;1.00
29353;DHT22;16344;50.364;8.944;2023-04-24T07:06:51;18.00;1.00
29353;DHT22;16344;50.364;8.944;2023-04-24T07:09:16;17.90;1.00
29353;DHT22;16344;50.364;8.944;2023-04-24T07:11:44;18.10;1.00
29353;DHT22;16344;50.364;8.944;2023-04-24T07:14:10;18.20;1.00
29353;DHT22;16344;50.364;8.944;2023-04-24T07:16:35;17.90;1.00
29353;DHT22;16344;50.364;8.944;2023-04-24T07:19:01;17.90;1.00
29353;DHT22;16344;50.364;8.944;2023-04-24T07:21:26;17.80;1.00
29353;DHT22;16344;50.364;8.944;2023-04-24T07:23:52;17.80;1.00
29353;DHT22;16344;50.364;8.944;2023-04-24T07:26:18;18.00;1.00
29353;DHT22;16344;50.364;8.944;2023-04-24T07:28:43;18.00;1.00
29353;DHT22;16344;50.364;8.944;2023-04-24T07:31:10;17.70;1.00
29353;DHT22;16344;50.364;8.944;2023-04-24T07:33:36;17.70;1.00
29353;DHT22;16344;50.364;8.944;2023-04-24T07:36:01;17.70;1.00
29353;DHT22;16344;50.364;8.944;2023-04-24T07:38:29;17.90;1.00
29353;DHT22;16344;50.364;8.944;2023-04-24T07:40:55;17.90;1.00
29353;DHT22;16344;50.364;8.944;2023-04-24T07:43:21;18.00;1.00
29353;DHT22;16344;50.364;8.944;2023-04-24T07:45:47;18.20;1.00
29353;DHT22;16344;50.364;8.944;2023-04-24T07:48:12;17.70;1.00
29353;DHT22;16344;50.364;8.944;2023-04-24T07:50:41;17.10;1.00
29353;DHT22;16344;50.364;8.944;2023-04-24T07:53:07;16.90;1.00
29353;DHT22;16344;50.364;8.944;2023-04-24T07:55:32;16.90;1.00
29353;DHT22;16344;50.364;8.944;2023-04-24T07:57:58;16.70;1.00
29353;DHT22;16344;50.364;8.944;2023-04-24T08:00:23;16.30;1.00
29353;DHT22;16344;50.364;8.944;2023-04-24T08:02:49;16.40;1.00
29353;DHT22;16344;50.364;8.944;2023-04-24T08:05:14;16.50;1.00
29353;DHT22;16344;50.364;8.944;2023-04-24T08:07:40;16.70;1.00
29353;DHT22;16344;50.364;8.944;2023-04-24T08:10:09;16.90;1.00
29353;DHT22;16344;50.364;8.944;2023-04-24T08:12:36;17.10;1.00
29353;DHT22;16344;50.364;8.944;2023-04-24T08:15:02;17.20;1.00
29353;DHT22;16344;50.364;8.944;2023-04-24T08:17:28;17.60;1.00
29353;DHT22;16344;50.364;8.944;2023-04-24T08:19:53;17.90;1.00
29353;DHT22;16344;50.364;8.944;2023-04-24T08:22:29;17.60;1.00
29353;DHT22;16344;50.364;8.944;2023-04-24T08:24:54;17.30;1.00
29353;DHT22;16344;50.364;8.944;2023-04-24T08:27:21;17.40;1.00
29353;DHT22;16344;50.364;8.944;2023-04-24T08:29:47;17.50;1.00
29353;DHT22;16344;50.364;8.944;2023-04-24T08:32:12;17.70;1.00
29353;DHT22;16344;50.364;8.944;2023-04-24T08:34:37;17.40;1.00
29353;DHT22;16344;50.364;8.944;2023-04-24T08:37:03;17.00;1.00
29353;DHT22;16344;50.364;8.944;2023-04-24T08:39:29;16.50;1.00
29353;DHT22;16344;50.364;8.944;2023-04-24T08:41:55;16.40;1.00
29353;DHT22;16344;50.364;8.944;2023-04-24T08:44:21;16.40;1.00
29353;DHT22;16344;50.364;8.944;2023-04-24T08:46:47;16.70;1.00
29353;DHT22;16344;50.364;8.944;2023-04-24T08:49:14;16.90;1.00
29353;DHT22;16344;50.364;8.944;2023-04-24T08:51:42;16.50;1.00
29353;DHT22;16344;50.364;8.944;2023-04-24T08:54:08;16.20;1.00
29353;DHT22;16344;50.364;8.944;2023-04-24T08:56:34;15.70;1.00
29353;DHT22;16344;50.364;8.944;2023-04-24T08:59:03;15.60;1.00
29353;DHT22;16344;50.364;8.944;2023-04-24T09:01:32;15.60;1.00
29353;DHT22;16344;50.364;8.944;2023-04-24T09:04:01;15.30;1.00
29353;DHT22;16344;50.364;8.944;2023-04-24T09:06:27;15.00;1.00
29353;DHT22;16344;50.364;8.944;2023-04-24T09:08:54;14.80;1.00
29353;DHT22;16344;50.364;8.944;2023-04-24T09:11:21;14.70;1.00
29353;DHT22;16344;50.364;8.944;2023-04-24T09:13:49;14.60;1.00
29353;DHT22;16344;50.364;8.944;2023-04-24T09:16:16;14.30;1.00
29353;DHT22;16344;50.364;8.944;2023-04-24T09:18:42;14.10;1.00
29353;DHT22;16344;50.364;8.944;2023-04-24T09:21:09;14.00;1.00
29353;DHT22;16344;50.364;8.944;2023-04-24T09:23:37;14.00;1.00
29353;DHT22;16344;50.364;8.944;2023-04-24T09:26:11;13.90;1.00
29353;DHT22;16344;50.364;8.944;2023-04-24T09:29:00;13.70;1.00
29353;DHT22;16344;50.364;8.944;2023-04-24T09:31:29;13.60;1.00
29353;DHT22;16344;50.364;8.944;2023-04-24T09:36:27;13.50;1.00
29353;DHT22;16344;50.364;8.944;2023-04-24T09:38:57;13.50;1.00
29353;DHT22;16344;50.364;8.944;2023-04-24T09:41:22;13.40;1.00
29353;DHT22;16344;50.364;8.944;2023-04-24T09:43:48;13.40;1.00
29353;DHT22;16344;50.364;8.944;2023-04-24T09:46:13;13.40;1.00
29353;DHT22;16344;50.364;8.944;2023-04-24T09:48:39;13.40;1.00
29353;DHT22;16344;50.364;8.944;2023-04-24T09:51:05;13.40;1.00
29353;DHT22;16344;50.364;8.944;2023-04-24T09:53:32;13.60;1.00
29353;DHT22;16344;50.364;8.944;2023-04-24T09:56:09;13.70;1.00
29353;DHT22;16344;50.364;8.944;2023-04-24T09:58:36;13.60;1.00
29353;DHT22;16344;50.364;8.944;2023-04-24T10:01:02;13.50;1.00
29353;DHT22;16344;50.364;8.944;2023-04-24T10:03:30;13.60;1.00
29353;DHT22;16344;50.364;8.944;2023-04-24T10:05:59;13.50;1.00
29353;DHT22;16344;50.364;8.944;2023-04-24T10:08:25;13.50;1.00
29353;DHT22;16344;50.364;8.944;2023-04-24T10:10:52;13.50;1.00
29353;DHT22;16344;50.364;8.944;2023-04-24T10:13:17;13.50;1.00
29353;DHT22;16344;50.364;8.944;2023-04-24T10:15:43;13.40;1.00
29353;DHT22;16344;50.364;8.944;2023-04-24T10:18:10;13.30;1.00
29353;DHT22;16344;50.364;8.944;2023-04-24T10:20:38;13.20;1.00
29353;DHT22;16344;50.364;8.944;2023-04-24T10:23:04;13.10;1.00
29353;DHT22;16344;50.364;8.944;2023-04-24T10:25:32;13.40;1.00
29353;DHT22;16344;50.364;8.944;2023-04-24T10:27:59;13.70;1.00
29353;DHT22;16344;50.364;8.944;2023-04-24T10:30:27;13.90;1.00
29353;DHT22;16344;50.364;8.944;2023-04-24T10:32:53;14.20;1.00
29353;DHT22;16344;50.364;8.944;2023-04-24T10:35:19;14.70;1.00
29353;DHT22;16344;50.364;8.944;2023-04-24T10:37:54;14.80;1.00
29353;DHT22;16344;50.364;8.944;2023-04-24T10:40:26;14.80;1.00
29353;DHT22;16344;50.364;8.944;2023-04-24T10:42:52;14.70;1.00
29353;DHT22;16344;50.364;8.944;2023-04-24T10:45:22;14.90;1.00
29353;DHT22;16344;50.364;8.944;2023-04-24T10:50:34;15.00;1.00
29353;DHT22;16344;50.364;8.944;2023-04-24T10:53:12;14.90;1.00
29353;DHT22;16344;50.364;8.944;2023-04-24T10:55:51;14.70;1.00
29353;DHT22;16344;50.364;8.944;2023-04-24T10:58:22;14.80;1.00
29353;DHT22;16344;50.364;8.944;2023-04-24T11:00:59;14.60;1.00
29353;DHT22;16344;50.364;8.944;2023-04-24T11:03:32;14.60;1.00
29353;DHT22;16344;50.364;8.944;2023-04-24T11:06:06;14.70;1.00
29353;DHT22;16344;50.364;8.944;2023-04-24T11:08:42;14.70;1.00
29353;DHT22;16344;50.364;8.944;2023-04-24T11:11:13;14.70;1.00
29353;DHT22;16344;50.364;8.944;2023-04-24T11:16:26;14.30;1.00
29353;DHT22;16344;50.364;8.944;2023-04-24T11:19:06;13.90;1.00
29353;DHT22;16344;50.364;8.944;2023-04-24T11:21:48;13.80;1.00
29353;DHT22;16344;50.364;8.944;2023-04-24T11:27:14;13.80;1.00
29353;DHT22;16344;50.364;8.944;2023-04-24T11:29:46;13.60;39.20
29353;DHT22;16344;50.364;8.944;2023-04-24T11:34:51;13.30;99.90
29353;DHT22;16344;50.364;8.944;2023-04-24T11:37:17;12.90;1.00
29353;DHT22;16344;50.364;8.944;2023-04-24T11:39:43;12.70;1.00
29353;DHT22;16344;50.364;8.944;2023-04-24T11:42:09;12.50;1.00
29353;DHT22;16344;50.364;8.944;2023-04-24T11:44:35;12.50;1.00
29353;DHT22;16344;50.364;8.944;2023-04-24T11:47:06;12.70;1.00
29353;DHT22;16344;50.364;8.944;2023-04-24T11:49:33;13.00;1.00
29353;DHT22;16344;50.364;8.944;2023-04-24T11:52:00;13.40;1.00
29353;DHT22;16344;50.364;8.944;2023-04-24T11:54:26;13.70;1.00
29353;DHT22;16344;50.364;8.944;2023-04-24T11:56:52;13.90;1.00
29353;DHT22;16344;50.364;8.944;2023-04-24T11:59:17;13.90;99.90
29353;DHT22;16344;50.364;8.944;2023-04-24T12:01:47;13.90;1.00
29353;DHT22;16344;50.364;8.944;2023-04-24T12:04:14;14.10;1.00
29353;DHT22;16344;50.364;8.944;2023-04-24T12:07:03;14.20;99.90
29353;DHT22;16344;50.364;8.944;2023-04-24T12:09:47;14.40;1.00
29353;DHT22;16344;50.364;8.944;2023-04-24T12:12:14;14.50;99.90
29353;DHT22;16344;50.364;8.944;2023-04-24T12:17:09;14.50;99.90
29353;DHT22;16344;50.364;8.944;2023-04-24T12:19:34;14.30;99.90
29353;DHT22;16344;50.364;8.944;2023-04-24T12:22:04;14.00;99.90
29353;DHT22;16344;50.364;8.944;2023-04-24T12:24:31;13.90;99.90
29353;DHT22;16344;50.364;8.944;2023-04-24T12:26:57;13.80;99.90
29353;DHT22;16344;50.364;8.944;2023-04-24T12:29:24;13.80;99.90
29353;DHT22;16344;50.364;8.944;2023-04-24T12:31:50;13.80;99.90
29353;DHT22;16344;50.364;8.944;2023-04-24T12:34:21;13.90;99.90
29353;DHT22;16344;50.364;8.944;2023-04-24T12:36:47;14.20;99.90
29353;DHT22;16344;50.364;8.944;2023-04-24T12:39:19;14.40;99.90
29353;DHT22;16344;50.364;8.944;2023-04-24T12:41:55;14.40;99.90
29353;DHT22;16344;50.364;8.944;2023-04-24T12:44:32;14.60;99.90
29353;DHT22;16344;50.364;8.944;2023-04-24T12:47:00;14.60;44.70
29353;DHT22;16344;50.364;8.944;2023-04-24T12:49:26;14.60;1.00
29353;DHT22;16344;50.364;8.944;2023-04-24T12:51:52;14.40;1.00
29353;DHT22;16344;50.364;8.944;2023-04-24T12:54:18;14.00;94.80
29353;DHT22;16344;50.364;8.944;2023-04-24T12:56:43;13.70;99.90
29353;DHT22;16344;50.364;8.944;2023-04-24T12:59:09;13.70;99.90
29353;DHT22;16344;50.364;8.944;2023-04-24T13:01:35;13.70;99.90
29353;DHT22;16344;50.364;8.944;2023-04-24T13:04:00;13.80;99.90
29353;DHT22;16344;50.364;8.944;2023-04-24T13:06:26;13.90;99.90
29353;DHT22;16344;50.364;8.944;2023-04-24T13:08:52;14.00;99.90
29353;DHT22;16344;50.364;8.944;2023-04-24T13:11:17;13.90;99.90
29353;DHT22;16344;50.364;8.944;2023-04-24T13:13:43;13.70;99.90
29353;DHT22;16344;50.364;8.944;2023-04-24T13:16:08;13.50;99.90
29353;DHT22;16344;50.364;8.944;2023-04-24T13:18:34;13.30;91.70
29353;DHT22;16344;50.364;8.944;2023-04-24T13:20:59;13.30;99.90
29353;DHT22;16344;50.364;8.944;2023-04-24T13:23:25;13.10;99.90
29353;DHT22;16344;50.364;8.944;2023-04-24T13:25:51;13.00;99.90
29353;DHT22;16344;50.364;8.944;2023-04-24T13:28:17;12.90;99.90
29353;DHT22;16344;50.364;8.944;2023-04-24T13:30:42;12.90;99.90
29353;DHT22;16344;50.364;8.944;2023-04-24T13:33:08;12.90;99.90
29353;DHT22;16344;50.364;8.944;2023-04-24T13:35:34;12.90;99.90
29353;DHT22;16344;50.364;8.944;2023-04-24T13:37:59;13.10;99.90
29353;DHT22;16344;50.364;8.944;2023-04-24T13:40:26;13.20;99.90
29353;DHT22;16344;50.364;8.944;2023-04-24T13:42:52;13.40;99.90
29353;DHT22;16344;50.364;8.944;2023-04-24T13:45:18;13.40;99.90
29353;DHT22;16344;50.364;8.944;2023-04-24T13:47:43;13.50;99.90
29353;DHT22;16344;50.364;8.944;2023-04-24T13:50:09;13.70;69.20
29353;DHT22;16344;50.364;8.944;2023-04-24T13:52:35;13.90;78.70
29353;DHT22;16344;50.364;8.944;2023-04-24T13:55:00;14.10;24.20
29353;DHT22;16344;50.364;8.944;2023-04-24T13:57:26;14.10;1.00
29353;DHT22;16344;50.364;8.944;2023-04-24T13:59:52;14.10;18.90
29353;DHT22;16344;50.364;8.944;2023-04-24T14:02:18;14.20;4.70
29353;DHT22;16344;50.364;8.944;2023-04-24T14:04:43;14.30;1.00
29353;DHT22;16344;50.364;8.944;2023-04-24T14:07:09;14.30;1.00
29353;DHT22;16344;50.364;8.944;2023-04-24T14:09:34;14.20;1.00
29353;DHT22;16344;50.364;8.944;2023-04-24T14:12:00;14.20;1.00
29353;DHT22;16344;50.364;8.944;2023-04-24T14:14:28;14.20;1.00
29353;DHT22;16344;50.364;8.944;2023-04-24T14:16:55;14.00;1.00
29353;DHT22;16344;50.364;8.944;2023-04-24T14:19:20;13.90;1.00
29353;DHT22;16344;50.364;8.944;2023-04-24T14:21:46;13.80;5.50
29353;DHT22;16344;50.364;8.944;2023-04-24T14:24:11;13.60;4.90
29353;DHT22;16344;50.364;8.944;2023-04-24T14:26:37;13.40;1.00
29353;DHT22;16344;50.364;8.944;2023-04-24T14:29:02;13.40;1.00
29353;DHT22;16344;50.364;8.944;2023-04-24T14:31:28;13.40;1.00
29353;DHT22;16344;50.364;8.944;2023-04-24T14:33:53;13.40;1.00
29353;DHT22;16344;50.364;8.944;2023-04-24T14:36:19;13.50;99.90
29353;DHT22;16344;50.364;8.944;2023-04-24T14:38:45;14.10;99.90
29353;DHT22;16344;50.364;8.944;2023-04-24T14:41:10;14.20;1.00
29353;DHT22;16344;50.364;8.944;2023-04-24T14:43:37;14.30;1.00
29353;DHT22;16344;50.364;8.944;2023-04-24T14:46:03;14.10;1.00
29353;DHT22;16344;50.364;8.944;2023-04-24T14:48:28;14.00;1.00
29353;DHT22;16344;50.364;8.944;2023-04-24T14:50:54;14.00;1.00
29353;DHT22;16344;50.364;8.944;2023-04-24T14:53:19;14.10;1.00
29353;DHT22;16344;50.364;8.944;2023-04-24T14:55:45;14.10;1.00
29353;DHT22;16344;50.364;8.944;2023-04-24T14:58:11;14.10;1.00
29353;DHT22;16344;50.364;8.944;2023-04-24T15:00:36;14.30;1.00
29353;DHT22;16344;50.364;8.944;2023-04-24T15:03:02;14.40;1.00
29353;DHT22;16344;50.364;8.944;2023-04-24T15:05:27;14.40;1.00
29353;DHT22;16344;50.364;8.944;2023-04-24T15:07:53;14.30;1.00
29353;DHT22;16344;50.364;8.944;2023-04-24T15:10:19;14.30;1.00
29353;DHT22;16344;50.364;8.944;2023-04-24T15:12:47;14.20;1.00
29353;DHT22;16344;50.364;8.944;2023-04-24T15:15:13;14.00;1.00
29353;DHT22;16344;50.364;8.944;2023-04-24T15:17:38;13.80;1.00
29353;DHT22;16344;50.364;8.944;2023-04-24T15:20:05;13.80;1.00
29353;DHT22;16344;50.364;8.944;2023-04-24T15:22:31;13.70;1.00
29353;DHT22;16344;50.364;8.944;2023-04-24T15:24:57;13.70;1.00
29353;DHT22;16344;50.364;8.944;2023-04-24T15:27:23;13.70;1.00
29353;DHT22;16344;50.364;8.944;2023-04-24T15:29:48;13.50;1.00
29353;DHT22;16344;50.364;8.944;2023-04-24T15:32:14;13.40;1.00
29353;DHT22;16344;50.364;8.944;2023-04-24T15:34:39;13.50;1.00
29353;DHT22;16344;50.364;8.944;2023-04-24T15:37:05;13.50;1.00
29353;DHT22;16344;50.364;8.944;2023-04-24T15:39:30;13.60;1.00
29353;DHT22;16344;50.364;8.944;2023-04-24T15:41:56;13.60;1.00
29353;DHT22;16344;50.364;8.944;2023-04-24T15:44:22;13.60;1.00
29353;DHT22;16344;50.364;8.944;2023-04-24T15:46:48;13.60;1.00
29353;DHT22;16344;50.364;8.944;2023-04-24T15:49:13;13.60;1.00
29353;DHT22;16344;50.364;8.944;2023-04-24T15:51:39;13.80;1.00
29353;DHT22;16344;50.364;8.944;2023-04-24T15:54:04;13.70;1.00